createdAt,value
2023-02-24T00:00:30.973Z,6.50
2023-02-24T00:03:33.556Z,7.20
2023-02-24T00:06:40.431Z,10.60
2023-02-24T00:09:44.484Z,6.33
2023-02-24T00:12:49.203Z,4.90
2023-02-24T00:16:02.420Z,8.80
2023-02-24T00:19:07.396Z,11.63
2023-02-24T00:22:10.755Z,7.33
2023-02-24T00:25:14.506Z,13.10
2023-02-24T00:28:18.452Z,10.07
2023-02-24T00:31:24.332Z,10.73
2023-02-24T00:34:27.668Z,9.83
2023-02-24T00:37:30.650Z,4.57
2023-02-24T00:40:37.112Z,7.67
2023-02-24T00:43:41.308Z,11.93
2023-02-24T00:46:47.501Z,9.03
2023-02-24T00:49:50.598Z,11.30
2023-02-24T00:52:53.205Z,8.60
2023-02-24T00:56:00.598Z,13.90
2023-02-24T00:59:04.662Z,13.90
2023-02-24T01:02:08.116Z,8.00
2023-02-24T01:05:11.905Z,14.13
2023-02-24T01:08:19.833Z,10.70
2023-02-24T01:11:42.674Z,8.90
2023-02-24T01:14:48.568Z,8.87
2023-02-24T01:17:51.196Z,6.43
2023-02-24T01:20:53.804Z,9.63
2023-02-24T01:23:56.411Z,12.40
2023-02-24T01:26:59.049Z,13.20
2023-02-24T01:30:04.842Z,8.67
2023-02-24T01:33:08.128Z,14.37
2023-02-24T01:36:12.858Z,14.97
2023-02-24T01:39:15.473Z,9.57
2023-02-24T01:42:20.155Z,11.23
2023-02-24T01:45:26.447Z,11.40
2023-02-24T01:48:30.761Z,11.13
2023-02-24T01:51:39.550Z,10.97
2023-02-24T01:54:45.252Z,7.97
2023-02-24T01:57:49.834Z,10.13
2023-02-24T02:00:53.922Z,10.83
2023-02-24T02:04:05.463Z,10.33
2023-02-24T02:07:10.081Z,11.43
2023-02-24T02:10:16.872Z,6.83
2023-02-24T02:13:21.397Z,10.57
2023-02-24T02:16:56.510Z,6.03
2023-02-24T02:20:43.946Z,5.93
2023-02-24T02:24:15.798Z,10.90
2023-02-24T02:27:29.388Z,9.67
2023-02-24T02:31:16.869Z,10.10
2023-02-24T02:34:37.682Z,8.87
2023-02-24T02:37:48.414Z,14.80
2023-02-24T02:41:02.026Z,12.77
2023-02-24T02:44:12.495Z,6.30
2023-02-24T02:47:23.146Z,9.27
2023-02-24T02:50:32.727Z,13.00
2023-02-24T02:53:40.640Z,6.07
2023-02-24T02:56:48.025Z,7.63
2023-02-24T02:59:56.826Z,9.53
2023-02-24T03:03:03.828Z,12.57
2023-02-24T03:06:14.187Z,10.13
2023-02-24T03:09:22.392Z,10.87
2023-02-24T03:12:27.832Z,12.17
2023-02-24T03:15:34.100Z,15.43
2023-02-24T03:18:40.348Z,10.93
2023-02-24T03:21:47.031Z,7.53
2023-02-24T03:24:49.738Z,11.60
2023-02-24T03:27:56.965Z,14.37
2023-02-24T03:31:04.176Z,5.30
2023-02-24T03:34:13.272Z,10.93
2023-02-24T03:37:23.902Z,7.13
2023-02-24T03:40:30.613Z,10.03
2023-02-24T03:43:36.379Z,12.60
2023-02-24T03:46:42.440Z,10.50
2023-02-24T03:49:45.273Z,12.00
2023-02-24T03:53:01.354Z,10.87
2023-02-24T03:56:17.591Z,8.87
2023-02-24T03:59:35.056Z,8.07
2023-02-24T04:02:38.652Z,7.70
2023-02-24T04:05:48.254Z,5.77
2023-02-24T04:09:02.737Z,6.83
2023-02-24T04:12:10.162Z,2.93
2023-02-24T04:15:19.356Z,8.63
2023-02-24T04:18:27.289Z,6.63
2023-02-24T04:21:32.100Z,12.23
2023-02-24T04:24:37.018Z,9.33
2023-02-24T04:27:41.626Z,15.93
2023-02-24T04:30:49.325Z,8.03
2023-02-24T04:33:53.247Z,8.50
2023-02-24T04:36:55.833Z,9.07
2023-02-24T04:39:59.785Z,7.07
2023-02-24T04:43:03.011Z,6.77
2023-02-24T04:46:08.039Z,9.40
2023-02-24T04:49:10.703Z,8.50
2023-02-24T04:52:15.197Z,8.77
2023-02-24T04:55:19.501Z,12.63
2023-02-24T04:58:27.495Z,10.13
2023-02-24T05:01:31.184Z,12.13
2023-02-24T05:04:38.768Z,4.20
2023-02-24T05:07:41.631Z,7.33
2023-02-24T05:10:47.415Z,8.77
2023-02-24T05:13:50.860Z,9.43
2023-02-24T05:16:59.921Z,21.70
2023-02-24T05:20:20.270Z,7.20
2023-02-24T05:23:26.422Z,14.33
2023-02-24T05:26:32.034Z,16.87
2023-02-24T05:29:36.535Z,11.73
2023-02-24T05:32:39.207Z,11.17
2023-02-24T05:35:41.984Z,8.20
2023-02-24T05:38:45.528Z,7.07
2023-02-24T05:41:50.977Z,5.53
2023-02-24T05:44:53.579Z,9.50
2023-02-24T05:47:56.166Z,11.87
2023-02-24T05:50:59.602Z,8.30
2023-02-24T05:54:04.799Z,9.27
2023-02-24T05:57:11.839Z,8.43
2023-02-24T06:00:16.542Z,10.37
2023-02-24T06:03:30.796Z,10.97
2023-02-24T06:06:37.811Z,10.80
2023-02-24T06:09:44.886Z,9.67
2023-02-24T06:12:48.956Z,9.37
2023-02-24T06:15:57.123Z,7.33
2023-02-24T06:18:59.727Z,9.47
2023-02-24T06:22:03.942Z,8.33
2023-02-24T06:25:07.744Z,7.23
2023-02-24T06:28:11.678Z,7.37
2023-02-24T06:31:15.029Z,10.83
2023-02-24T06:34:18.294Z,11.37
2023-02-24T06:37:22.715Z,8.17
2023-02-24T06:40:25.471Z,7.80
2023-02-24T06:43:29.378Z,11.47
2023-02-24T06:46:32.341Z,10.20
2023-02-24T06:49:35.394Z,12.10
2023-02-24T06:52:37.989Z,10.43
2023-02-24T06:55:40.557Z,14.63
2023-02-24T06:58:45.921Z,8.20
2023-02-24T07:01:49.138Z,8.43
2023-02-24T07:04:55.162Z,8.40
2023-02-24T07:07:57.772Z,10.80
2023-02-24T07:11:00.348Z,11.47
2023-02-24T07:14:05.655Z,7.60
2023-02-24T07:17:08.481Z,10.70
2023-02-24T07:20:25.159Z,8.03
2023-02-24T07:23:29.317Z,13.50
2023-02-24T07:26:32.097Z,12.33
2023-02-24T07:29:38.015Z,8.83
2023-02-24T07:32:40.693Z,15.93
2023-02-24T07:35:43.858Z,11.40
2023-02-24T07:38:46.692Z,6.60
2023-02-24T07:41:49.543Z,12.53
2023-02-24T07:44:55.037Z,9.67
2023-02-24T07:47:58.283Z,9.57
2023-02-24T07:51:02.104Z,14.23
2023-02-24T07:54:05.580Z,12.30
2023-02-24T07:57:13.372Z,8.87
2023-02-24T08:00:19.677Z,10.13
2023-02-24T08:03:23.736Z,10.37
2023-02-24T08:06:37.658Z,10.03
2023-02-24T08:10:03.250Z,9.23
2023-02-24T08:13:06.674Z,10.13
2023-02-24T08:16:10.640Z,7.70
2023-02-24T08:19:20.105Z,9.20
2023-02-24T08:22:24.165Z,8.27
2023-02-24T08:25:35.558Z,9.77
2023-02-24T08:28:39.329Z,6.47
2023-02-24T08:31:43.433Z,9.53
2023-02-24T08:34:49.149Z,9.80
2023-02-24T08:37:53.894Z,8.43
2023-02-24T08:40:59.215Z,8.87
2023-02-24T08:44:02.886Z,9.17
2023-02-24T08:47:07.545Z,12.43
2023-02-24T08:50:11.472Z,5.43
2023-02-24T08:53:18.991Z,5.77
2023-02-24T08:56:24.813Z,5.40
2023-02-24T08:59:37.665Z,7.37
2023-02-24T09:02:42.478Z,8.63
2023-02-24T09:05:46.113Z,3.33
2023-02-24T09:08:49.164Z,7.40
2023-02-24T09:11:55.844Z,5.30
2023-02-24T09:15:01.148Z,4.73
2023-02-24T09:18:08.188Z,6.03
2023-02-24T09:21:32.300Z,6.13
2023-02-24T09:24:34.901Z,3.47
2023-02-24T09:27:42.180Z,5.50
2023-02-24T09:30:54.234Z,5.47
2023-02-24T09:34:03.953Z,3.67
2023-02-24T09:37:24.694Z,4.33
2023-02-24T09:40:48.860Z,4.97
2023-02-24T09:43:59.837Z,7.13
2023-02-24T09:47:15.777Z,6.57
2023-02-24T09:51:02.154Z,3.93
2023-02-24T09:54:15.432Z,6.77
2023-02-24T09:57:25.370Z,5.33
2023-02-24T10:00:33.463Z,6.37
2023-02-24T10:03:48.023Z,6.17
2023-02-24T10:06:58.183Z,6.73
2023-02-24T10:10:19.641Z,7.27
2023-02-24T10:13:32.450Z,8.40
2023-02-24T10:16:45.814Z,7.87
2023-02-24T10:19:56.336Z,7.57
2023-02-24T10:23:06.166Z,8.03
2023-02-24T10:26:22.002Z,7.27
2023-02-24T10:29:34.542Z,8.60
2023-02-24T10:32:46.987Z,6.87
2023-02-24T10:35:50.200Z,8.27
2023-02-24T10:38:55.974Z,11.53
2023-02-24T10:42:15.582Z,11.00
2023-02-24T10:45:34.816Z,15.67
2023-02-24T10:48:41.776Z,8.27
2023-02-24T10:51:52.197Z,8.63
2023-02-24T10:55:05.307Z,8.43
2023-02-24T10:58:15.730Z,10.20
2023-02-24T11:01:21.912Z,10.20
2023-02-24T11:04:53.822Z,10.27
2023-02-24T11:08:09.501Z,10.37
2023-02-24T11:11:25.336Z,10.07
2023-02-24T11:14:45.557Z,11.50
2023-02-24T11:17:51.832Z,11.00
2023-02-24T11:20:57.024Z,10.33
2023-02-24T11:24:02.786Z,15.00
2023-02-24T11:27:10.632Z,11.93
2023-02-24T11:30:20.414Z,10.13
2023-02-24T11:33:31.786Z,9.60
2023-02-24T11:36:41.831Z,11.57
2023-02-24T11:39:55.421Z,11.93
2023-02-24T11:43:04.587Z,11.77
2023-02-24T11:46:13.353Z,12.23
2023-02-24T11:49:27.896Z,13.20
2023-02-24T11:52:34.700Z,13.63
2023-02-24T11:55:42.506Z,14.60
2023-02-24T11:58:53.691Z,10.53
2023-02-24T12:02:01.309Z,11.90
2023-02-24T12:05:12.664Z,12.67
2023-02-24T12:08:25.616Z,11.70
2023-02-24T12:11:39.919Z,14.17
2023-02-24T12:14:49.609Z,11.50
2023-02-24T12:17:57.984Z,9.80
2023-02-24T12:21:06.753Z,13.17
2023-02-24T12:24:12.386Z,10.40
2023-02-24T12:27:21.003Z,10.30
2023-02-24T12:30:48.772Z,9.87
2023-02-24T12:34:04.685Z,13.70
2023-02-24T12:37:35.699Z,11.47
2023-02-24T12:40:46.495Z,13.43
2023-02-24T12:43:56.351Z,12.07
2023-02-24T12:47:07.634Z,16.40
2023-02-24T12:50:27.240Z,12.83
2023-02-24T12:53:36.820Z,17.03
2023-02-24T12:56:47.432Z,12.70
2023-02-24T12:59:51.312Z,21.17
2023-02-24T13:03:07.115Z,15.60
2023-02-24T13:06:16.450Z,23.00
2023-02-24T13:09:26.004Z,17.37
2023-02-24T13:12:37.406Z,15.97
2023-02-24T13:15:50.486Z,19.50
2023-02-24T13:19:06.049Z,18.40
2023-02-24T13:22:20.469Z,20.73
2023-02-24T13:25:26.772Z,15.97
2023-02-24T13:28:33.114Z,15.03
2023-02-24T13:31:43.631Z,23.90
2023-02-24T13:34:47.699Z,14.30
2023-02-24T13:37:50.512Z,21.97
2023-02-24T13:40:53.142Z,17.20
2023-02-24T13:43:58.890Z,15.30
2023-02-24T13:47:43.854Z,15.07
2023-02-24T13:51:04.015Z,16.87
2023-02-24T13:54:23.904Z,11.73
2023-02-24T13:57:53.902Z,12.50
2023-02-24T14:01:08.590Z,14.10
2023-02-24T14:04:17.745Z,17.77
2023-02-24T14:07:26.032Z,15.50
2023-02-24T14:10:30.927Z,15.47
2023-02-24T14:13:36.599Z,14.87
2023-02-24T14:16:40.863Z,23.40
2023-02-24T14:19:43.574Z,15.40
2023-02-24T14:22:49.599Z,13.43
2023-02-24T14:25:58.243Z,13.90
2023-02-24T14:29:03.327Z,17.03
2023-02-24T14:32:06.062Z,9.53
2023-02-24T14:35:20.742Z,12.20
2023-02-24T14:38:34.623Z,12.90
2023-02-24T14:41:37.829Z,18.43
2023-02-24T14:44:43.343Z,7.20
2023-02-24T14:47:46.029Z,13.63
2023-02-24T14:50:48.753Z,16.60
2023-02-24T14:53:55.446Z,19.67
2023-02-24T14:57:00.228Z,9.13
2023-02-24T15:00:11.482Z,21.13
2023-02-24T15:03:19.606Z,12.17
2023-02-24T15:06:25.846Z,14.63
2023-02-24T15:09:36.544Z,17.43
2023-02-24T15:12:47.490Z,9.90
2023-02-24T15:15:50.263Z,11.80
2023-02-24T15:18:55.632Z,16.80
2023-02-24T15:21:58.355Z,14.10
2023-02-24T15:25:19.725Z,14.60
2023-02-24T15:28:25.786Z,14.97
2023-02-24T15:31:29.579Z,14.82
2023-02-24T15:34:35.806Z,20.07
2023-02-24T15:37:42.567Z,10.73
2023-02-24T15:40:53.920Z,16.77
2023-02-24T15:43:57.025Z,11.40
2023-02-24T15:47:01.642Z,11.57
2023-02-24T15:50:04.299Z,10.77
2023-02-24T15:53:08.777Z,8.60
2023-02-24T15:56:12.731Z,16.20
2023-02-24T15:59:16.110Z,5.97
2023-02-24T16:02:20.961Z,5.47
2023-02-24T16:05:23.915Z,21.93
2023-02-24T16:08:27.158Z,16.37
2023-02-24T16:11:36.268Z,11.00
2023-02-24T16:14:39.642Z,8.40
2023-02-24T16:17:43.528Z,13.47
2023-02-24T16:20:48.735Z,10.93
2023-02-24T16:23:51.476Z,10.43
2023-02-24T16:26:55.528Z,9.73
2023-02-24T16:29:58.343Z,10.27
2023-02-24T16:33:02.516Z,14.33
2023-02-24T16:36:10.784Z,8.67
2023-02-24T16:39:14.007Z,6.07
2023-02-24T16:42:20.785Z,15.53
2023-02-24T16:45:28.797Z,18.00
2023-02-24T16:48:34.553Z,17.87
2023-02-24T16:51:38.985Z,10.33
2023-02-24T16:54:42.469Z,11.63
2023-02-24T16:57:46.546Z,14.33
2023-02-24T17:00:52.128Z,11.43
2023-02-24T17:03:55.220Z,12.23
2023-02-24T17:06:57.785Z,22.17
2023-02-24T17:10:00.349Z,11.27
2023-02-24T17:13:04.320Z,11.33
2023-02-24T17:16:07.379Z,18.50
2023-02-24T17:19:10.107Z,17.57
2023-02-24T17:22:12.686Z,21.37
2023-02-24T17:25:16.733Z,17.40
2023-02-24T17:28:20.950Z,19.50
2023-02-24T17:31:23.973Z,24.00
2023-02-24T17:34:26.865Z,19.67
2023-02-24T17:37:29.428Z,17.87
2023-02-24T17:40:31.999Z,19.60
2023-02-24T17:43:35.954Z,27.00
2023-02-24T17:46:39.251Z,19.17
2023-02-24T17:49:41.996Z,25.57
2023-02-24T17:52:44.739Z,15.27
2023-02-24T17:56:02.022Z,15.50
2023-02-24T17:59:06.691Z,16.50
2023-02-24T18:02:11.536Z,25.57
2023-02-24T18:05:14.147Z,25.23
2023-02-24T18:08:16.721Z,23.17
2023-02-24T18:11:20.620Z,25.83
2023-02-24T18:14:24.579Z,24.50
2023-02-24T18:17:27.304Z,28.97
2023-02-24T18:20:30.824Z,32.30
2023-02-24T18:23:34.112Z,25.87
2023-02-24T18:26:36.946Z,34.33
2023-02-24T18:29:40.996Z,41.43
2023-02-24T18:32:44.838Z,40.33
2023-02-24T18:35:47.583Z,38.60
2023-02-24T18:38:50.190Z,35.03
2023-02-24T18:41:52.784Z,35.67
2023-02-24T18:44:56.715Z,28.90
2023-02-24T18:48:01.758Z,45.93
2023-02-24T18:51:04.944Z,32.53
2023-02-24T18:54:07.521Z,32.63
2023-02-24T18:57:10.101Z,37.83
2023-02-24T19:00:15.468Z,41.47
2023-02-24T19:03:18.191Z,39.67
2023-02-24T19:06:22.110Z,26.63
2023-02-24T19:09:24.903Z,47.70
2023-02-24T19:12:27.496Z,33.07
2023-02-24T19:15:31.474Z,34.57
2023-02-24T19:18:34.806Z,31.07
2023-02-24T19:21:37.408Z,48.07
2023-02-24T19:24:39.964Z,29.77
2023-02-24T19:27:42.566Z,37.77
2023-02-24T19:30:46.580Z,32.03
2023-02-24T19:33:52.683Z,34.00
2023-02-24T19:36:55.271Z,34.40
2023-02-24T19:39:57.847Z,31.40
2023-02-24T19:43:00.421Z,29.83
2023-02-24T19:46:08.869Z,28.67
2023-02-24T19:49:11.637Z,33.43
2023-02-24T19:52:14.214Z,24.83
2023-02-24T19:55:17.038Z,32.23
2023-02-24T19:58:19.615Z,30.87
2023-02-24T20:01:24.689Z,31.13
2023-02-24T20:04:27.387Z,23.83
2023-02-24T20:07:30.056Z,24.87
2023-02-24T20:10:32.698Z,42.17
2023-02-24T20:13:35.293Z,34.23
2023-02-24T20:16:41.733Z,39.00
2023-02-24T20:19:44.498Z,27.30
2023-02-24T20:22:47.091Z,27.43
2023-02-24T20:25:51.780Z,27.50
2023-02-24T20:28:55.336Z,36.00
2023-02-24T20:31:59.911Z,27.03
2023-02-24T20:35:02.660Z,28.10
2023-02-24T20:38:05.255Z,41.13
2023-02-24T20:41:08.196Z,26.50
2023-02-24T20:44:11.972Z,30.37
2023-02-24T20:47:18.187Z,14.00
2023-02-24T20:50:21.703Z,20.57
2023-02-24T20:53:24.343Z,19.90
2023-02-24T20:56:28.110Z,28.40
2023-02-24T20:59:30.723Z,15.37
2023-02-24T21:02:35.077Z,19.13
2023-02-24T21:05:37.661Z,20.23
2023-02-24T21:08:40.810Z,13.60
2023-02-24T21:11:43.381Z,23.57
2023-02-24T21:14:45.972Z,21.73
2023-02-24T21:17:49.894Z,23.27
2023-02-24T21:20:53.502Z,27.33
2023-02-24T21:23:56.791Z,31.27
2023-02-24T21:27:00.105Z,19.27
2023-02-24T21:30:02.691Z,17.60
2023-02-24T21:33:07.021Z,23.90
2023-02-24T21:36:13.404Z,17.30
2023-02-24T21:39:15.990Z,19.67
2023-02-24T21:42:18.565Z,15.00
2023-02-24T21:45:21.295Z,17.03
2023-02-24T21:48:25.205Z,15.57
2023-02-24T21:51:29.161Z,13.67
2023-02-24T21:54:32.122Z,13.13
2023-02-24T21:57:41.012Z,18.77
2023-02-24T22:00:43.717Z,9.33
2023-02-24T22:03:47.734Z,16.53
2023-02-24T22:06:50.374Z,11.00
2023-02-24T22:09:52.924Z,9.97
2023-02-24T22:12:56.984Z,6.87
2023-02-24T22:16:01.957Z,7.37
2023-02-24T22:19:06.501Z,6.47
2023-02-24T22:22:09.079Z,6.70
2023-02-24T22:25:11.834Z,5.43
2023-02-24T22:28:14.575Z,4.20
2023-02-24T22:31:19.432Z,5.37
2023-02-24T22:34:23.439Z,3.87
2023-02-24T22:37:26.160Z,1.90
2023-02-24T22:40:28.926Z,4.43
2023-02-24T22:43:32.101Z,3.53
2023-02-24T22:46:36.514Z,4.23
2023-02-24T22:49:40.463Z,5.77
2023-02-24T22:52:43.049Z,3.80
2023-02-24T22:55:47.379Z,4.07
2023-02-24T22:58:50.290Z,4.23
2023-02-24T23:01:53.719Z,4.30
2023-02-24T23:04:58.722Z,1.77
2023-02-24T23:08:03.324Z,2.23
2023-02-24T23:11:08.211Z,4.07
2023-02-24T23:14:13.732Z,1.80
2023-02-24T23:17:16.394Z,2.43
2023-02-24T23:20:20.615Z,2.03
2023-02-24T23:23:23.417Z,3.17
2023-02-24T23:26:30.113Z,3.47
2023-02-24T23:29:32.769Z,5.27
2023-02-24T23:32:35.990Z,5.90
2023-02-24T23:35:40.691Z,4.30
2023-02-24T23:38:43.289Z,3.43
2023-02-24T23:41:45.929Z,4.73
2023-02-24T23:44:49.300Z,3.40
2023-02-24T23:47:52.104Z,4.00
2023-02-24T23:50:57.275Z,5.97
2023-02-24T23:54:00.407Z,2.87
2023-02-24T23:57:03.029Z,4.43
